»·PEaware :: N919SS KSNA-KBUR

N919SS :: KSNA-KBUR

FLIGHT INFORMATION

Flight Status: Arrived
Operator: Privately registered:
United States
More flights under this callsign
Pilot: Jay S. (33210)
Aircraft: CIRRUS SR-22 TURBO
(S22T)
More flights by this aircraft type
Origin: KSNA John Wayne-Orange Co
United States
Destination: KBUR Bob Hope-Burbank
United States
More flights between these airports :: More routes between these airports
Route: SLI V23 POPPR SMO125 SMO SMO311 SILEX
File this flight plan on PilotEdge
Remarks:
Altitude:
(Current/Filed)
4,000ft
Speed:
(Current/Filed)
180kts
Departed: 09-Jan-21 07:14 PM
Arrived: 09-Jan-21 07:57 PM
Distance/Time
Traveled:
40nm/0:43
Distance/Time
To Go:
Arrived

Flight Plot

Page will automatically refresh every two minutes.


Map Options




Map Legend


Flown Route
Filed Route
Departure Airport
Arrival Airport
Navaid (VOR, NDB)
Fix

Horizontal Profiles

Position Reports

Time Latitude Longitude Heading Altitude Ground
Speed
09-Jan-21 19:03 33.670064 -117.867981 309 59ft 0kts
09-Jan-21 19:04 33.670064 -117.867981 309 59ft 0kts
09-Jan-21 19:06 33.670064 -117.867981 309 59ft 0kts
09-Jan-21 19:07 33.670064 -117.867981 309 59ft 0kts
09-Jan-21 19:07 33.670064 -117.867981 309 59ft 0kts
09-Jan-21 19:08 33.670139 -117.868047 322 59ft 3kts
09-Jan-21 19:09 33.670765 -117.868666 343 59ft 10kts
09-Jan-21 19:10 33.673991 -117.867112 19 59ft 17kts
09-Jan-21 19:11 33.678626 -117.864191 27 59ft 26kts
09-Jan-21 19:12 33.679963 -117.863691 287 59ft 0kts
09-Jan-21 19:13 33.675584 -117.867111 205 84ft 97kts
09-Jan-21 19:14 33.648947 -117.899836 231 1192ft 130kts
09-Jan-21 19:15 33.616732 -117.945138 230 2479ft 131kts
09-Jan-21 19:16 33.608851 -118.003184 281 3847ft 127kts
09-Jan-21 19:17 33.616068 -118.052569 281 3936ft 167kts
09-Jan-21 19:18 33.624679 -118.107967 281 3945ft 168kts
09-Jan-21 19:19 33.633338 -118.163287 281 3947ft 166kts
09-Jan-21 19:20 33.642025 -118.217881 281 3949ft 165kts
09-Jan-21 19:21 33.650992 -118.272190 281 3951ft 164kts
09-Jan-21 19:22 33.660353 -118.325896 281 3953ft 163kts
09-Jan-21 19:23 33.669764 -118.379451 282 3957ft 162kts
09-Jan-21 19:24 33.678920 -118.433079 282 3961ft 163kts
09-Jan-21 19:25 33.655948 -118.460836 140 3967ft 176kts
09-Jan-21 19:26 33.635389 -118.407192 112 3964ft 177kts
09-Jan-21 19:27 33.618320 -118.351497 84 3948ft 177kts
09-Jan-21 19:28 33.657347 -118.338027 357 3956ft 168kts
09-Jan-21 19:29 33.702138 -118.330522 9 3954ft 170kts
09-Jan-21 19:30 33.740935 -118.319553 11 3969ft 169kts
09-Jan-21 19:31 33.779794 -118.307673 11 3980ft 170kts
09-Jan-21 19:32 33.817351 -118.296125 11 3979ft 170kts
09-Jan-21 19:33 33.853347 -118.299433 320 3986ft 164kts
09-Jan-21 19:34 33.881157 -118.326966 318 3981ft 164kts
09-Jan-21 19:35 33.909928 -118.355837 318 3980ft 164kts
09-Jan-21 19:36 33.937131 -118.383180 318 3980ft 164kts
09-Jan-21 19:37 33.963865 -118.416951 311 3979ft 163kts
09-Jan-21 19:38 33.991058 -118.452588 311 3978ft 163kts
09-Jan-21 19:39 34.021091 -118.491733 311 3976ft 164kts
09-Jan-21 19:40 34.054266 -118.534443 311 3974ft 165kts
09-Jan-21 19:41 34.089328 -118.578843 311 3973ft 167kts
09-Jan-21 19:42 34.121594 -118.623033 311 3982ft 176kts
09-Jan-21 19:43 34.152115 -118.670426 311 3982ft 176kts
09-Jan-21 19:44 34.188678 -118.674702 60 3990ft 156kts
09-Jan-21 19:45 34.201602 -118.627063 87 3568ft 131kts
09-Jan-21 19:46 34.200671 -118.598825 82 3563ft 96kts
09-Jan-21 19:47 34.200355 -118.575105 81 3581ft 91kts
09-Jan-21 19:48 34.200098 -118.551172 81 3583ft 93kts
09-Jan-21 19:49 34.199830 -118.524896 82 3364ft 102kts
09-Jan-21 19:50 34.199452 -118.494038 84 2851ft 108kts
09-Jan-21 19:51 34.199100 -118.464274 83 2309ft 97kts
09-Jan-21 19:52 34.198722 -118.433018 84 1813ft 100kts
09-Jan-21 19:53 34.198313 -118.401870 84 1300ft 87kts
09-Jan-21 19:54 34.198077 -118.378909 85 937ft 80kts
09-Jan-21 19:55 34.197944 -118.360160 83 714ft 46kts
09-Jan-21 19:56 34.200976 -118.358885 328 723ft 23kts
09-Jan-21 19:57 34.201264 -118.359299 276 725ft 0kts

Navigation Log

Ident Type
Flight plan parsing failed, navigation log unavailable